createdAt,value
2016-04-02T00:00:03.923Z,81.29
2016-04-02T00:01:03.927Z,81.29
2016-04-02T00:02:03.929Z,81.48
2016-04-02T00:03:03.963Z,81.44
2016-04-02T00:04:03.794Z,81.54
2016-04-02T00:05:03.937Z,81.54
2016-04-02T00:06:03.940Z,81.73
2016-04-02T00:07:03.927Z,81.63
2016-04-02T00:08:03.929Z,81.25
2016-04-02T00:09:03.963Z,81.25
2016-04-02T00:10:03.934Z,82.1
2016-04-02T00:11:03.938Z,81.54
2016-04-02T00:12:03.940Z,81.92
2016-04-02T00:13:03.928Z,82.01
2016-04-02T00:14:03.915Z,82.01
2016-04-02T00:15:03.917Z,81.92
2016-04-02T00:16:03.951Z,82.68
2016-04-02T00:17:03.939Z,82.58
2016-04-02T00:18:03.925Z,83.25
2016-04-02T00:19:03.928Z,82.96
2016-04-02T00:20:04.461Z,83.15
2016-04-02T00:21:03.903Z,83.15
2016-04-02T00:22:03.920Z,83.44
2016-04-02T00:23:03.892Z,83.82
2016-04-02T00:24:03.911Z,83.72
2016-04-02T00:25:03.928Z,83.72
2016-04-02T00:26:03.916Z,84.29
2016-04-02T00:27:03.903Z,84.67
2016-04-02T00:28:03.922Z,84.39
2016-04-02T00:29:03.908Z,83.97
2016-04-02T00:30:03.941Z,84.1
2016-04-02T00:31:03.944Z,84.16
2016-04-02T00:32:03.900Z,84.53
2016-04-02T00:33:03.902Z,84.63
2016-04-02T00:34:03.921Z,85.11
2016-04-02T00:35:03.924Z,85.01
2016-04-02T00:36:03.885Z,85.01
2016-04-02T00:37:03.903Z,85.49
2016-04-02T00:38:03.921Z,85.39
2016-04-02T00:39:03.893Z,85.01
2016-04-02T00:40:03.911Z,84.82
2016-04-02T00:41:03.899Z,84.91
2016-04-02T00:42:03.885Z,85.39
2016-04-02T00:43:03.903Z,85.2
2016-04-02T00:44:03.891Z,85.01
2016-04-02T00:45:03.909Z,85.01
2016-04-02T00:46:03.928Z,86.15
2016-04-02T00:47:03.883Z,85.96
2016-04-02T00:48:03.901Z,86.05
2016-04-02T00:49:03.889Z,85.86
2016-04-02T00:50:03.891Z,86.34
2016-04-02T00:51:03.878Z,86.53
2016-04-02T00:52:03.912Z,86.05
2016-04-02T00:53:03.899Z,86.43
2016-04-02T00:54:03.902Z,86.43
2016-04-02T00:55:03.905Z,87.01
2016-04-02T00:56:03.876Z,86.91
2016-04-02T00:57:03.879Z,86.91
2016-04-02T00:58:03.881Z,86.72
2016-04-02T00:59:03.885Z,86.72
2016-04-02T01:00:03.887Z,86.63
2016-04-02T01:01:03.874Z,87.19
2016-04-02T01:02:03.861Z,86.77
2016-04-02T01:03:03.863Z,87.34
2016-04-02T01:04:03.866Z,87.1
2016-04-02T01:05:03.854Z,87.57
2016-04-02T01:06:03.872Z,86.87
2016-04-02T01:07:03.874Z,87.15
2016-04-02T01:08:03.876Z,87.62
2016-04-02T01:09:03.849Z,87.43
2016-04-02T01:10:03.852Z,87.62
2016-04-02T01:11:03.854Z,87.24
2016-04-02T01:12:03.857Z,88.01
2016-04-02T01:13:03.843Z,88.1
2016-04-02T01:14:03.862Z,87.91
2016-04-02T01:15:03.864Z,88.01
2016-04-02T01:16:03.837Z,87.62
2016-04-02T01:17:03.854Z,87.91
2016-04-02T01:18:03.856Z,87.82
2016-04-02T01:19:03.875Z,87.82
2016-04-02T01:20:03.878Z,87.62
2016-04-02T01:21:03.834Z,87.72
2016-04-02T01:22:03.853Z,87.82
2016-04-02T01:23:03.825Z,87.91
2016-04-02T01:24:03.858Z,87.62
2016-04-02T01:25:03.844Z,87.62
2016-04-02T01:26:03.847Z,88.1
2016-04-02T01:27:03.819Z,87.43
2016-04-02T01:28:03.822Z,87.91
2016-04-02T01:29:03.825Z,88.01
2016-04-02T01:30:03.827Z,88.2
2016-04-02T01:31:03.892Z,87.82
2016-04-02T01:32:03.817Z,87.91
2016-04-02T01:33:03.819Z,88.29
2016-04-02T01:34:03.869Z,88.39
2016-04-02T01:35:03.825Z,87.91
2016-04-02T01:36:03.812Z,88.01
2016-04-02T01:37:03.815Z,88.76
2016-04-02T01:38:03.818Z,88.48
2016-04-02T01:39:03.695Z,88.67
2016-04-02T01:40:03.807Z,88.76
2016-04-02T01:41:03.810Z,88.39
2016-04-02T01:42:03.796Z,88.57
2016-04-02T01:43:03.799Z,88.01
2016-04-02T01:44:03.802Z,88.48
2016-04-02T01:45:03.804Z,88.67
2016-04-02T01:46:03.823Z,88.76
2016-04-02T01:47:03.795Z,88.76
2016-04-02T01:48:03.781Z,88.86
2016-04-02T01:49:03.800Z,88.67
2016-04-02T01:50:03.817Z,88.67
2016-04-02T01:51:03.774Z,88.57
2016-04-02T01:52:03.808Z,88.95
2016-04-02T01:53:03.780Z,89.14
2016-04-02T01:54:03.782Z,88.95
2016-04-02T01:55:03.800Z,89.43
2016-04-02T01:56:03.781Z,89.43
2016-04-02T01:57:03.772Z,89.43
2016-04-02T01:58:03.747Z,89.43
2016-04-02T01:59:03.738Z,89.43
2016-04-02T02:00:03.729Z,89.43
2016-04-02T02:01:03.709Z,89.43
2016-04-02T02:02:03.707Z,89.62
2016-04-02T02:03:03.706Z,89.43
2016-04-02T02:04:03.720Z,89.24
2016-04-02T02:05:03.688Z,89.43
2016-04-02T02:06:03.688Z,90
2016-04-02T02:07:03.673Z,89.33
2016-04-02T02:08:03.674Z,89.81
2016-04-02T02:09:03.669Z,89.33
2016-04-02T02:10:03.670Z,89.43
2016-04-02T02:11:03.672Z,89.33
2016-04-02T02:12:03.675Z,88.95
2016-04-02T02:13:03.662Z,88.57
2016-04-02T02:14:03.664Z,89.24
2016-04-02T02:15:03.690Z,89.05
2016-04-02T02:16:03.662Z,89.24
2016-04-02T02:17:03.508Z,89.14
2016-04-02T02:18:03.650Z,89.53
2016-04-02T02:19:03.590Z,89.72
2016-04-02T02:20:03.654Z,89.53
2016-04-02T02:21:03.657Z,90.38
2016-04-02T02:22:03.659Z,89.62
2016-04-02T02:23:03.647Z,89.81
2016-04-02T02:24:03.650Z,89.72
2016-04-02T02:25:03.652Z,89.72
2016-04-02T02:26:03.620Z,89.43
2016-04-02T02:27:03.639Z,89.72
2016-04-02T02:28:03.643Z,89.62
2016-04-02T02:29:03.629Z,90.38
2016-04-02T02:30:03.632Z,90.19
2016-04-02T02:31:03.634Z,90.09
2016-04-02T02:32:03.622Z,90.19
2016-04-02T02:33:03.625Z,90.09
2016-04-02T02:34:03.690Z,90.28
2016-04-02T02:35:03.631Z,90
2016-04-02T02:36:03.633Z,90.85
2016-04-02T02:37:03.620Z,90.52
2016-04-02T02:38:03.623Z,90.62
2016-04-02T02:39:03.656Z,90.9
2016-04-02T02:40:03.612Z,90.71
2016-04-02T02:41:03.599Z,91
2016-04-02T02:42:03.603Z,90.62
2016-04-02T02:43:03.605Z,90.81
2016-04-02T02:44:03.592Z,91.28
2016-04-02T02:45:03.595Z,90.9
2016-04-02T02:46:03.613Z,91.19
2016-04-02T02:47:03.600Z,91.19
2016-04-02T02:48:03.619Z,90.85
2016-04-02T02:49:03.652Z,90.85
2016-04-02T02:50:03.593Z,90.71
2016-04-02T02:51:03.595Z,90.9
2016-04-02T02:52:03.582Z,91.09
2016-04-02T02:53:03.601Z,90.81
2016-04-02T02:54:03.603Z,90.24
2016-04-02T02:55:03.574Z,90.76
2016-04-02T02:56:03.593Z,90.66
2016-04-02T02:57:03.565Z,90.47
2016-04-02T02:58:03.568Z,90.47
2016-04-02T02:59:03.585Z,90.28
2016-04-02T03:00:03.573Z,90
2016-04-02T03:01:03.575Z,90.38
2016-04-02T03:02:03.578Z,89.72
2016-04-02T03:03:03.565Z,89.43
2016-04-02T03:04:03.708Z,89.43
2016-04-02T03:05:03.571Z,89.53
2016-04-02T03:06:03.557Z,89.72
2016-04-02T03:07:03.592Z,89.24
2016-04-02T03:08:03.579Z,89.53
2016-04-02T03:09:03.582Z,88.48
2016-04-02T03:10:03.568Z,88.39
2016-04-02T03:11:03.540Z,88.86
2016-04-02T03:12:03.542Z,88.48
2016-04-02T03:13:03.545Z,88.76
2016-04-02T03:14:03.548Z,88.39
2016-04-02T03:15:03.535Z,88.76
2016-04-02T03:16:03.553Z,88.39
2016-04-02T03:17:03.540Z,88.62
2016-04-02T03:18:03.558Z,88.05
2016-04-02T03:19:03.827Z,88.15
2016-04-02T03:20:03.533Z,87.95
2016-04-02T03:21:03.552Z,87.76
2016-04-02T03:22:03.554Z,87.86
2016-04-02T03:23:03.385Z,87.67
2016-04-02T03:24:03.559Z,88.05
2016-04-02T03:25:03.530Z,88.24
2016-04-02T03:26:03.533Z,87.67
2016-04-02T03:27:03.535Z,87.29
2016-04-02T03:28:03.538Z,87.38
2016-04-02T03:29:03.526Z,87.48
2016-04-02T03:30:03.529Z,87.48
2016-04-02T03:31:03.360Z,87.76
2016-04-02T03:32:03.518Z,87.48
2016-04-02T03:33:03.552Z,87.01
2016-04-02T03:34:03.757Z,87.29
2016-04-02T03:35:03.510Z,87.48
2016-04-02T03:36:03.529Z,87.29
2016-04-02T03:37:03.516Z,87.48
2016-04-02T03:38:03.518Z,87.67
2016-04-02T03:39:03.365Z,87.57
2016-04-02T03:40:03.523Z,87.29
2016-04-02T03:41:03.511Z,88.05
2016-04-02T03:42:03.514Z,88.05
2016-04-02T03:43:03.517Z,87.76
2016-04-02T03:44:03.520Z,87.86
2016-04-02T03:45:03.506Z,88.15
2016-04-02T03:46:03.509Z,88.05
2016-04-02T03:47:03.512Z,87.57
2016-04-02T03:48:03.514Z,87.57
2016-04-02T03:49:03.533Z,87.19
2016-04-02T03:50:03.504Z,87.29
2016-04-02T03:51:03.507Z,87.76
2016-04-02T03:52:03.509Z,87.38
2016-04-02T03:53:03.496Z,87.48
2016-04-02T03:54:03.499Z,87.57
2016-04-02T03:55:03.501Z,87.38
2016-04-02T03:56:03.504Z,87.67
2016-04-02T03:57:03.507Z,87.67
2016-04-02T03:58:03.494Z,86.91
2016-04-02T03:59:03.497Z,86.91
2016-04-02T04:00:03.499Z,87.1
2016-04-02T04:01:03.518Z,86.86
2016-04-02T04:02:03.489Z,86.72
2016-04-02T04:03:03.492Z,86.95
2016-04-02T04:04:03.667Z,87.01
2016-04-02T04:05:03.513Z,86.76
2016-04-02T04:06:03.485Z,86.72
2016-04-02T04:07:03.488Z,86.95
2016-04-02T04:08:03.490Z,86.76
2016-04-02T04:09:03.493Z,86.72
2016-04-02T04:10:03.512Z,87.14
2016-04-02T04:11:03.498Z,86.95
2016-04-02T04:12:03.485Z,86.86
2016-04-02T04:13:03.503Z,86.57
2016-04-02T04:14:03.506Z,86.43
2016-04-02T04:15:03.509Z,86.47
2016-04-02T04:16:03.480Z,86.53
2016-04-02T04:17:03.514Z,86.43
2016-04-02T04:18:03.563Z,86.67
2016-04-02T04:19:03.785Z,85.91
2016-04-02T04:20:03.491Z,86.19
2016-04-02T04:21:03.478Z,85.91
2016-04-02T04:22:03.481Z,85.15
2016-04-02T04:23:03.499Z,85.34
2016-04-02T04:24:03.471Z,85.53
2016-04-02T04:25:03.489Z,85.24
2016-04-02T04:26:03.491Z,85.34
2016-04-02T04:27:03.479Z,85.53
2016-04-02T04:28:03.481Z,86.1
2016-04-02T04:29:03.484Z,86.1
2016-04-02T04:30:03.486Z,85.72
2016-04-02T04:31:03.473Z,86.1
2016-04-02T04:32:03.476Z,86.1
2016-04-02T04:33:03.479Z,86.1
2016-04-02T04:34:03.559Z,86.19
2016-04-02T04:35:03.485Z,86.19
2016-04-02T04:36:03.471Z,85.72
2016-04-02T04:37:03.490Z,86.19
2016-04-02T04:38:03.462Z,86.38
2016-04-02T04:39:03.479Z,86.57
2016-04-02T04:40:03.467Z,86.38
2016-04-02T04:41:03.453Z,86.29
2016-04-02T04:42:03.487Z,86.29
2016-04-02T04:43:03.475Z,86.1
2016-04-02T04:44:03.478Z,85.81
2016-04-02T04:45:03.465Z,85.91
2016-04-02T04:46:03.467Z,85.15
2016-04-02T04:47:03.470Z,85.34
2016-04-02T04:48:03.473Z,85.24
2016-04-02T04:49:03.538Z,85.62
2016-04-02T04:50:03.447Z,85.24
2016-04-02T04:51:03.464Z,85.34
2016-04-02T04:52:03.452Z,85.43
2016-04-02T04:53:03.470Z,84.86
2016-04-02T04:54:03.472Z,84.95
2016-04-02T04:55:03.475Z,84.67
2016-04-02T04:56:03.463Z,84.95
2016-04-02T04:57:03.449Z,85.05
2016-04-02T04:58:03.453Z,84.39
2016-04-02T04:59:03.455Z,84.58
2016-04-02T05:00:03.458Z,85.24
2016-04-02T05:01:03.477Z,85.34
2016-04-02T05:02:03.479Z,85.24
2016-04-02T05:03:03.482Z,85.05
2016-04-02T05:04:03.531Z,85.15
2016-04-02T05:05:03.456Z,84.95
2016-04-02T05:06:03.459Z,84.67
2016-04-02T05:07:03.445Z,84.48
2016-04-02T05:08:03.464Z,84.67
2016-04-02T05:09:03.450Z,84.67
2016-04-02T05:10:03.453Z,84.67
2016-04-02T05:11:03.472Z,84.01
2016-04-02T05:12:03.442Z,84.29
2016-04-02T05:13:03.446Z,83.91
2016-04-02T05:14:03.448Z,84.39
2016-04-02T05:15:03.467Z,84.2
2016-04-02T05:16:03.439Z,84.2
2016-04-02T05:17:03.441Z,84.2
2016-04-02T05:18:03.459Z,84.48
2016-04-02T05:19:03.555Z,84.67
2016-04-02T05:20:03.433Z,84.48
2016-04-02T05:21:03.436Z,84.1
2016-04-02T05:22:03.439Z,83.91
2016-04-02T05:23:03.442Z,84.2
2016-04-02T05:24:03.445Z,84.39
2016-04-02T05:25:03.431Z,84.2
2016-04-02T05:26:03.450Z,84.1
2016-04-02T05:27:03.436Z,83.62
2016-04-02T05:28:03.439Z,83.62
2016-04-02T05:29:03.427Z,83.53
2016-04-02T05:30:03.429Z,83.72
2016-04-02T05:31:03.432Z,84.01
2016-04-02T05:32:03.449Z,84.2
2016-04-02T05:33:03.437Z,83.44
2016-04-02T05:34:03.674Z,82.96
2016-04-02T05:35:03.426Z,83.06
2016-04-02T05:36:03.429Z,82.96
2016-04-02T05:37:03.432Z,83.06
2016-04-02T05:38:03.435Z,83.34
2016-04-02T05:39:03.423Z,82.96
2016-04-02T05:40:03.425Z,82.96
2016-04-02T05:41:03.459Z,82.96
2016-04-02T05:42:03.414Z,82.68
2016-04-02T05:43:03.417Z,82.34
2016-04-02T05:44:03.420Z,82.53
2016-04-02T05:45:03.438Z,82.68
2016-04-02T05:46:03.441Z,82.77
2016-04-02T05:47:03.443Z,82.43
2016-04-02T05:48:03.430Z,82.49
2016-04-02T05:49:03.558Z,82.71
2016-04-02T05:50:03.420Z,82.43
2016-04-02T05:51:03.423Z,82.29
2016-04-02T05:52:03.442Z,82.62
2016-04-02T05:53:03.428Z,82.34
2016-04-02T05:54:03.416Z,82.24
2016-04-02T05:55:03.434Z,82.24
2016-04-02T05:56:03.405Z,81.96
2016-04-02T05:57:03.408Z,82.24
2016-04-02T05:58:03.441Z,82.34
2016-04-02T05:59:03.429Z,81.86
2016-04-02T06:00:03.416Z,82.05
2016-04-02T06:01:03.435Z,82.34
2016-04-02T06:02:03.422Z,82.24
2016-04-02T06:03:03.424Z,82.15
2016-04-02T06:04:03.427Z,81.96
2016-04-02T06:05:03.430Z,81.48
2016-04-02T06:06:03.416Z,81.58
2016-04-02T06:07:03.279Z,81.29
2016-04-02T06:08:03.421Z,81.58
2016-04-02T06:09:03.424Z,81.38
2016-04-02T06:10:03.427Z,81.29
2016-04-02T06:11:03.429Z,80.72
2016-04-02T06:12:03.432Z,80.34
2016-04-02T06:13:03.403Z,80.72
2016-04-02T06:14:03.422Z,80.15
2016-04-02T06:15:03.425Z,80.05
2016-04-02T06:16:03.412Z,80.15
2016-04-02T06:17:03.431Z,80.72
2016-04-02T06:18:03.434Z,80.82
2016-04-02T06:19:03.576Z,80.05
2016-04-02T06:20:03.423Z,80.15
2016-04-02T06:21:03.410Z,80.53
2016-04-02T06:22:03.428Z,80.15
2016-04-02T06:23:03.416Z,80.24
2016-04-02T06:24:03.433Z,80.15
2016-04-02T06:25:03.436Z,80.05
2016-04-02T06:26:03.438Z,80.05
2016-04-02T06:27:03.410Z,79.49
2016-04-02T06:28:03.429Z,79.3
2016-04-02T06:29:03.431Z,79.33
2016-04-02T06:30:03.434Z,78.96
2016-04-02T06:31:03.437Z,78.96
2016-04-02T06:32:03.439Z,78.96
2016-04-02T06:33:03.427Z,78.86
2016-04-02T06:34:03.320Z,78.67
2016-04-02T06:35:03.432Z,78.86
2016-04-02T06:36:03.450Z,78.96
2016-04-02T06:37:03.421Z,79.05
2016-04-02T06:38:03.424Z,78.86
2016-04-02T06:39:03.427Z,79.14
2016-04-02T06:40:03.446Z,78.96
2016-04-02T06:41:03.433Z,78.57
2016-04-02T06:42:03.435Z,78.48
2016-04-02T06:43:03.423Z,78.48
2016-04-02T06:44:03.426Z,78.57
2016-04-02T06:45:03.443Z,78.48
2016-04-02T06:46:03.446Z,78.19
2016-04-02T06:47:03.417Z,77.91
2016-04-02T06:48:03.436Z,78.57
2016-04-02T06:49:03.579Z,78.38
2016-04-02T06:50:03.425Z,78.57
2016-04-02T06:51:03.444Z,78.48
2016-04-02T06:52:03.461Z,78.48
2016-04-02T06:53:03.449Z,78.1
2016-04-02T06:54:03.436Z,77.81
2016-04-02T06:55:03.439Z,78.1
2016-04-02T06:56:03.426Z,78.19
2016-04-02T06:57:03.444Z,77.91
2016-04-02T06:58:03.447Z,78.1
2016-04-02T06:59:03.418Z,77.43
2016-04-02T07:00:03.436Z,77.72
2016-04-02T07:01:03.424Z,77.62
2016-04-02T07:02:03.473Z,77.56
2016-04-02T07:03:03.429Z,77.19
2016-04-02T07:04:03.571Z,77.09
2016-04-02T07:05:03.449Z,77.15
2016-04-02T07:06:03.468Z,77.43
2016-04-02T07:07:03.471Z,77.28
2016-04-02T07:08:03.442Z,77
2016-04-02T07:09:03.477Z,77
2016-04-02T07:10:03.463Z,77.19
2016-04-02T07:11:03.466Z,77.19
2016-04-02T07:12:03.454Z,77.19
2016-04-02T07:13:03.440Z,76.71
2016-04-02T07:14:03.474Z,76.52
2016-04-02T07:15:03.462Z,76.14
2016-04-02T07:16:03.448Z,76.23
2016-04-02T07:17:03.467Z,76.04
2016-04-02T07:18:03.470Z,75.85
2016-04-02T07:19:03.347Z,75.85
2016-04-02T07:20:03.459Z,75.57
2016-04-02T07:21:03.462Z,75.67
2016-04-02T07:22:03.480Z,76.23
2016-04-02T07:23:03.483Z,75.95
2016-04-02T07:24:03.486Z,76.14
2016-04-02T07:25:03.457Z,76.52
2016-04-02T07:26:03.460Z,76.04
2016-04-02T07:27:03.493Z,75.67
2016-04-02T07:28:03.465Z,75.76
2016-04-02T07:29:03.483Z,75.09
2016-04-02T07:30:03.486Z,75.19
2016-04-02T07:31:03.458Z,75.19
2016-04-02T07:32:03.491Z,75.19
2016-04-02T07:33:03.479Z,75.19
2016-04-02T07:34:03.543Z,75.32
2016-04-02T07:35:03.468Z,75.13
2016-04-02T07:36:03.487Z,74.84
2016-04-02T07:37:03.490Z,74.71
2016-04-02T07:38:03.492Z,75.04
2016-04-02T07:39:03.495Z,75.23
2016-04-02T07:40:03.481Z,75.13
2016-04-02T07:41:03.484Z,75.19
2016-04-02T07:42:03.518Z,74.99
2016-04-02T07:43:03.506Z,75.32
2016-04-02T07:44:03.852Z,75.23
2016-04-02T07:45:03.495Z,75.13
2016-04-02T07:46:03.514Z,74.94
2016-04-02T07:47:03.484Z,74.37
2016-04-02T07:48:03.487Z,74.56
2016-04-02T07:49:03.381Z,74.27
2016-04-02T07:50:03.492Z,74.08
2016-04-02T07:51:03.496Z,73.89
2016-04-02T07:52:03.498Z,73.8
2016-04-02T07:53:03.486Z,73.99
2016-04-02T07:54:03.504Z,73.89
2016-04-02T07:55:03.506Z,73.51
2016-04-02T07:56:03.509Z,73.32
2016-04-02T07:57:03.527Z,73.26
2016-04-02T07:58:03.514Z,72.78
2016-04-02T07:59:03.516Z,72.88
2016-04-02T08:00:03.519Z,72.97
2016-04-02T08:01:03.507Z,73.07
2016-04-02T08:02:03.525Z,72.31
2016-04-02T08:03:03.528Z,72.21
2016-04-02T08:04:03.578Z,71.83
2016-04-02T08:05:03.549Z,71.83
2016-04-02T08:06:03.536Z,72.02
2016-04-02T08:07:03.538Z,72.41
2016-04-02T08:08:03.526Z,72.02
2016-04-02T08:09:03.559Z,72.41
2016-04-02T08:10:03.531Z,73.07
2016-04-02T08:11:03.549Z,72.88
2016-04-02T08:12:03.551Z,72.97
2016-04-02T08:13:03.554Z,73.17
2016-04-02T08:14:03.573Z,73.07
2016-04-02T08:15:03.576Z,73.17
2016-04-02T08:16:03.563Z,72.41
2016-04-02T08:17:03.565Z,72.5
2016-04-02T08:18:03.553Z,72.6
2016-04-02T08:19:03.602Z,72.6
2016-04-02T08:20:03.573Z,72.41
2016-04-02T08:21:03.561Z,73.07
2016-04-02T08:22:03.579Z,72.97
2016-04-02T08:23:03.567Z,72.97
2016-04-02T08:24:03.584Z,73.07
2016-04-02T08:25:03.572Z,72.78
2016-04-02T08:26:03.574Z,72.63
2016-04-02T08:27:03.592Z,72.63
2016-04-02T08:28:03.579Z,72.16
2016-04-02T08:29:03.597Z,72.44
2016-04-02T08:30:03.569Z,71.77
2016-04-02T08:31:03.588Z,71.58
2016-04-02T08:32:03.591Z,72.16
2016-04-02T08:33:03.608Z,71.96
2016-04-02T08:34:03.596Z,72.06
2016-04-02T08:35:03.598Z,71.58
2016-04-02T08:36:03.585Z,71.87
2016-04-02T08:37:03.603Z,71.87
2016-04-02T08:38:03.606Z,71.77
2016-04-02T08:39:03.609Z,71.77
2016-04-02T08:40:03.612Z,71.52
2016-04-02T08:41:03.598Z,71.52
2016-04-02T08:42:03.618Z,72
2016-04-02T08:43:03.620Z,71.23
2016-04-02T08:44:03.623Z,71.14
2016-04-02T08:45:03.609Z,71.04
2016-04-02T08:46:03.628Z,71.04
2016-04-02T08:47:03.631Z,71.04
2016-04-02T08:48:03.649Z,71.14
2016-04-02T08:49:03.511Z,71.52
2016-04-02T08:50:03.623Z,72
2016-04-02T08:51:03.641Z,71.81
2016-04-02T08:52:03.659Z,72
2016-04-02T08:53:03.631Z,71.04
2016-04-02T08:54:03.664Z,70.76
2016-04-02T08:55:03.652Z,71.62
2016-04-02T08:56:03.670Z,71.04
2016-04-02T08:57:03.658Z,70.67
2016-04-02T08:58:03.676Z,71.43
2016-04-02T08:59:03.663Z,71.23
2016-04-02T09:00:03.681Z,70.95
2016-04-02T09:01:03.668Z,71.23
2016-04-02T09:02:03.671Z,70.95
2016-04-02T09:03:03.688Z,70.86
2016-04-02T09:04:03.677Z,70.76
2016-04-02T09:05:03.679Z,70.42
2016-04-02T09:06:03.682Z,70.32
2016-04-02T09:07:03.684Z,69.56
2016-04-02T09:08:03.687Z,69.37
2016-04-02T09:09:03.689Z,69.27
2016-04-02T09:10:03.707Z,69.08
2016-04-02T09:11:03.710Z,68.32
2016-04-02T09:12:03.713Z,68.51
2016-04-02T09:13:03.716Z,68.79
2016-04-02T09:14:03.703Z,68.6
2016-04-02T09:15:03.706Z,68.03
2016-04-02T09:16:03.724Z,67.3
2016-04-02T09:17:03.727Z,67.3
2016-04-02T09:18:03.730Z,67.68
2016-04-02T09:19:03.795Z,67.21
2016-04-02T09:20:03.735Z,67.01
2016-04-02T09:21:03.753Z,66.82
2016-04-02T09:22:03.740Z,67.55
2016-04-02T09:23:03.742Z,67.93
2016-04-02T09:24:03.745Z,67.83
2016-04-02T09:25:03.748Z,68.12
2016-04-02T09:26:03.751Z,68.12
2016-04-02T09:27:03.770Z,68.41
2016-04-02T09:28:03.772Z,68.41
2016-04-02T09:29:03.759Z,67.74
2016-04-02T09:30:03.793Z,67.46
2016-04-02T09:31:03.780Z,67.21
2016-04-02T09:32:03.782Z,66.44
2016-04-02T09:33:03.785Z,65.96
2016-04-02T09:34:03.866Z,65.87
2016-04-02T09:35:03.635Z,65.58
2016-04-02T09:36:03.794Z,65.67
2016-04-02T09:37:03.796Z,65.23
2016-04-02T09:38:03.799Z,65.52
2016-04-02T09:39:03.817Z,65.42
2016-04-02T09:40:03.821Z,64.65
2016-04-02T09:41:03.807Z,64.75
2016-04-02T09:42:03.841Z,65.14
2016-04-02T09:43:03.812Z,64.65
2016-04-02T09:44:03.815Z,64.94
2016-04-02T09:45:03.834Z,65.04
2016-04-02T09:46:03.851Z,64.75
2016-04-02T09:47:03.839Z,64.47
2016-04-02T09:48:03.856Z,64.37
2016-04-02T09:49:03.876Z,63.32
2016-04-02T09:50:03.847Z,63.89
2016-04-02T09:51:03.881Z,63.7
2016-04-02T09:52:03.852Z,63.8
2016-04-02T09:53:03.870Z,63.51
2016-04-02T09:54:03.873Z,63.16
2016-04-02T09:55:03.875Z,63.13
2016-04-02T09:56:03.878Z,63.7
2016-04-02T09:57:03.897Z,63.32
2016-04-02T09:58:03.900Z,63.13
2016-04-02T09:59:03.934Z,62.87
2016-04-02T10:00:03.889Z,62.49
2016-04-02T10:01:03.923Z,62.49
2016-04-02T10:02:03.925Z,62.87
2016-04-02T10:03:03.913Z,62.49
2016-04-02T10:04:03.947Z,62.49
2016-04-02T10:05:03.934Z,62.49
2016-04-02T10:06:03.937Z,62.68
2016-04-02T10:07:03.924Z,62.78
2016-04-02T10:08:03.942Z,62.11
2016-04-02T10:09:03.960Z,61.35
2016-04-02T10:10:03.947Z,62.11
2016-04-02T10:11:03.949Z,61.25
2016-04-02T10:12:03.968Z,61.06
2016-04-02T10:13:03.971Z,60.68
2016-04-02T10:14:04.005Z,61.28
2016-04-02T10:15:03.977Z,61.66
2016-04-02T10:16:03.995Z,61.47
2016-04-02T10:17:03.982Z,60.71
2016-04-02T10:18:04.000Z,60.8
2016-04-02T10:19:03.987Z,60.61
2016-04-02T10:20:04.020Z,60.71
2016-04-02T10:21:04.008Z,60.71
2016-04-02T10:22:04.011Z,60.71
2016-04-02T10:23:04.029Z,60.33
2016-04-02T10:24:04.048Z,60.9
2016-04-02T10:25:04.034Z,60.9
2016-04-02T10:26:04.037Z,60.8
2016-04-02T10:27:04.024Z,60.8
2016-04-02T10:28:04.042Z,60.52
2016-04-02T10:29:04.045Z,60.71
2016-04-02T10:30:04.064Z,60.61
2016-04-02T10:31:04.067Z,61.19
2016-04-02T10:32:04.069Z,61.28
2016-04-02T10:33:04.088Z,61.19
2016-04-02T10:34:04.090Z,60.42
2016-04-02T10:35:04.108Z,60.71
2016-04-02T10:36:04.110Z,61.09
2016-04-02T10:37:04.098Z,60.61
2016-04-02T10:38:04.116Z,60.52
2016-04-02T10:39:04.119Z,60.42
2016-04-02T10:40:04.122Z,60.61
2016-04-02T10:41:04.124Z,60.8
2016-04-02T10:42:04.112Z,60.71
2016-04-02T10:43:04.099Z,60.52
2016-04-02T10:44:04.132Z,59.97
2016-04-02T10:45:04.135Z,59.88
2016-04-02T10:46:04.137Z,60.13
2016-04-02T10:47:04.140Z,60.61
2016-04-02T10:48:04.159Z,60.71
2016-04-02T10:49:04.177Z,60.33
2016-04-02T10:50:04.165Z,60.23
2016-04-02T10:51:04.167Z,60.35
2016-04-02T10:52:04.154Z,59.97
2016-04-02T10:53:04.187Z,59.69
2016-04-02T10:54:04.191Z,59.11
2016-04-02T10:55:04.193Z,59.69
2016-04-02T10:56:04.196Z,59.78
2016-04-02T10:57:04.199Z,59.59
2016-04-02T10:58:04.186Z,59.4
2016-04-02T10:59:04.220Z,59.2
2016-04-02T11:00:04.206Z,58.25
2016-04-02T11:01:04.225Z,58.34
2016-04-02T11:02:04.227Z,58.54
2016-04-02T11:03:04.236Z,58.34
2016-04-02T11:04:04.242Z,58.73
2016-04-02T11:05:04.234Z,57.97
2016-04-02T11:06:04.211Z,57.8
2016-04-02T11:07:04.202Z,57.77
2016-04-02T11:08:04.200Z,57.13
2016-04-02T11:09:04.199Z,57.9
2016-04-02T11:10:04.197Z,57.13
2016-04-02T11:11:04.210Z,57.23
2016-04-02T11:12:04.225Z,57.13
2016-04-02T11:13:04.210Z,57.23
2016-04-02T11:14:04.196Z,56.75
2016-04-02T11:15:04.212Z,56.94
2016-04-02T11:16:04.245Z,57.04
2016-04-02T11:17:04.230Z,57.99
2016-04-02T11:18:04.217Z,58.63
2016-04-02T11:19:04.252Z,57.87
2016-04-02T11:20:04.269Z,57.87
2016-04-02T11:21:04.240Z,57.87
2016-04-02T11:22:04.289Z,57.97
2016-04-02T11:23:04.261Z,57.97
2016-04-02T11:24:04.279Z,58.06
2016-04-02T11:25:04.267Z,57.7
2016-04-02T11:26:04.285Z,57.23
2016-04-02T11:27:04.287Z,57.42
2016-04-02T11:28:04.275Z,56.75
2016-04-02T11:29:04.292Z,56.65
2016-04-02T11:30:04.295Z,56.84
2016-04-02T11:31:04.329Z,56.65
2016-04-02T11:32:04.316Z,56.59
2016-04-02T11:33:04.334Z,57.13
2016-04-02T11:34:04.337Z,57.9
2016-04-02T11:35:04.309Z,58.56
2016-04-02T11:36:04.328Z,58.44
2016-04-02T11:37:04.345Z,58.63
2016-04-02T11:38:04.333Z,58.76
2016-04-02T11:39:04.350Z,58.56
2016-04-02T11:40:04.353Z,57.9
2016-04-02T11:41:04.371Z,57.23
2016-04-02T11:42:04.358Z,57.7
2016-04-02T11:43:04.361Z,57.7
2016-04-02T11:44:04.379Z,57.61
2016-04-02T11:45:04.383Z,57.04
2016-04-02T11:46:04.385Z,56.75
2016-04-02T11:47:04.388Z,56.65
2016-04-02T11:48:04.406Z,56.84
2016-04-02T11:49:04.409Z,56.77
2016-04-02T11:50:04.412Z,56.01
2016-04-02T11:51:04.430Z,55.82
2016-04-02T11:52:04.418Z,55.63
2016-04-02T11:53:04.420Z,55.63
2016-04-02T11:54:04.438Z,55.44
2016-04-02T11:55:04.440Z,55.63
2016-04-02T11:56:04.428Z,55.91
2016-04-02T11:57:04.445Z,55.63
2016-04-02T11:58:04.464Z,55.34
2016-04-02T11:59:04.451Z,55.34
2016-04-02T12:00:04.453Z,54.89
2016-04-02T12:01:04.489Z,54.41
2016-04-02T12:02:04.475Z,54.03
2016-04-02T12:03:04.494Z,53.55
2016-04-02T12:04:04.511Z,53.16
2016-04-02T12:05:04.514Z,53.07
2016-04-02T12:06:04.502Z,52.33
2016-04-02T12:07:04.535Z,52.14
2016-04-02T12:08:04.522Z,52.42
2016-04-02T12:09:04.509Z,52.71
2016-04-02T12:10:04.527Z,52.81
2016-04-02T12:11:04.546Z,52.81
2016-04-02T12:12:04.533Z,53.19
2016-04-02T12:13:04.536Z,53.74
2016-04-02T12:14:04.569Z,53.55
2016-04-02T12:15:04.557Z,53.93
2016-04-02T12:16:04.591Z,54.5
2016-04-02T12:17:04.577Z,54.77
2016-04-02T12:18:04.581Z,54.22
2016-04-02T12:19:04.646Z,54.6
2016-04-02T12:20:04.586Z,54.41
2016-04-02T12:21:04.620Z,54.6
2016-04-02T12:22:04.607Z,54.96
2016-04-02T12:23:04.626Z,55.44
2016-04-02T12:24:04.612Z,55.44
2016-04-02T12:25:04.631Z,55.82
2016-04-02T12:26:04.617Z,55.34
2016-04-02T12:27:04.652Z,54.77
2016-04-02T12:28:04.654Z,54.57
2016-04-02T12:29:04.657Z,54.79
2016-04-02T12:30:04.676Z,54.7
2016-04-02T12:31:04.662Z,54.6
2016-04-02T12:32:04.665Z,54.12
2016-04-02T12:33:04.667Z,53.93
2016-04-02T12:34:04.702Z,54.03
2016-04-02T12:35:04.704Z,54.12
2016-04-02T12:36:04.691Z,53.93
2016-04-02T12:37:04.710Z,54.03
2016-04-02T12:38:04.713Z,53.55
2016-04-02T12:39:04.716Z,53.36
2016-04-02T12:40:04.733Z,53.86
2016-04-02T12:41:04.721Z,53.48
2016-04-02T12:42:04.738Z,53.28
2016-04-02T12:43:04.727Z,52.23
2016-04-02T12:44:04.744Z,52.23
2016-04-02T12:45:04.747Z,52.81
2016-04-02T12:46:04.766Z,53.38
2016-04-02T12:47:04.768Z,53.58
2016-04-02T12:48:04.818Z,53.67
2016-04-02T12:49:04.774Z,53.77
2016-04-02T12:50:04.776Z,53.67
2016-04-02T12:51:04.810Z,54.15
2016-04-02T12:52:04.812Z,53.58
2016-04-02T12:53:04.800Z,53.58
2016-04-02T12:54:04.818Z,53.96
2016-04-02T12:55:04.821Z,53.96